sensor_id;sensor_type;location;lat;lon;timestamp;temperature;humidity
58513;DHT22;44302;47.914;10.642;2023-02-01T08:31:15;2.20;99.90
58513;DHT22;44302;47.914;10.642;2023-02-01T08:38:56;2.30;99.90
58513;DHT22;44302;47.914;10.642;2023-02-01T08:45:11;2.30;99.90
58513;DHT22;44302;47.914;10.642;2023-02-01T08:52:38;2.30;99.90
58513;DHT22;44302;47.914;10.642;2023-02-01T08:59:28;2.30;99.90
58513;DHT22;44302;47.914;10.642;2023-02-01T09:04:26;2.40;99.90
58513;DHT22;44302;47.914;10.642;2023-02-01T09:08:56;2.40;99.90
58513;DHT22;44302;47.914;10.642;2023-02-01T09:12:35;2.40;99.90
58513;DHT22;44302;47.914;10.642;2023-02-01T09:15:01;2.50;99.90
58513;DHT22;44302;47.914;10.642;2023-02-01T09:17:29;2.50;99.90
58513;DHT22;44302;47.914;10.642;2023-02-01T09:19:55;2.60;99.90
58513;DHT22;44302;47.914;10.642;2023-02-01T09:22:21;2.60;99.90
58513;DHT22;44302;47.914;10.642;2023-02-01T09:24:47;2.60;99.90
58513;DHT22;44302;47.914;10.642;2023-02-01T09:27:12;2.60;99.90
58513;DHT22;44302;47.914;10.642;2023-02-01T09:29:38;2.60;99.90
58513;DHT22;44302;47.914;10.642;2023-02-01T09:32:04;2.60;99.90
58513;DHT22;44302;47.914;10.642;2023-02-01T09:34:30;2.60;99.90
58513;DHT22;44302;47.914;10.642;2023-02-01T09:36:56;2.60;99.90
58513;DHT22;44302;47.914;10.642;2023-02-01T09:39:22;2.60;99.90
58513;DHT22;44302;47.914;10.642;2023-02-01T09:44:40;2.60;99.90
58513;DHT22;44302;47.914;10.642;2023-02-01T09:47:16;2.70;99.90
58513;DHT22;44302;47.914;10.642;2023-02-01T09:50:00;2.80;99.90
58513;DHT22;44302;47.914;10.642;2023-02-01T09:56:06;2.80;99.90
58513;DHT22;44302;47.914;10.642;2023-02-01T09:58:25;2.80;99.90
58513;DHT22;44302;47.914;10.642;2023-02-01T10:00:58;2.90;99.90
58513;DHT22;44302;47.914;10.642;2023-02-01T10:03:29;3.00;99.90
58513;DHT22;44302;47.914;10.642;2023-02-01T10:17:00;3.20;99.90
58513;DHT22;44302;47.914;10.642;2023-02-01T10:19:38;3.20;99.90
58513;DHT22;44302;47.914;10.642;2023-02-01T10:22:09;3.30;99.90
58513;DHT22;44302;47.914;10.642;2023-02-01T10:24:47;3.40;99.90
58513;DHT22;44302;47.914;10.642;2023-02-01T10:27:21;3.40;99.90
58513;DHT22;44302;47.914;10.642;2023-02-01T10:29:59;3.40;99.90
58513;DHT22;44302;47.914;10.642;2023-02-01T10:32:31;3.30;99.90
58513;DHT22;44302;47.914;10.642;2023-02-01T10:35:08;3.20;99.90
58513;DHT22;44302;47.914;10.642;2023-02-01T10:37:35;3.20;99.90
58513;DHT22;44302;47.914;10.642;2023-02-01T10:40:25;3.50;99.90
58513;DHT22;44302;47.914;10.642;2023-02-01T10:42:57;3.70;99.90
58513;DHT22;44302;47.914;10.642;2023-02-01T10:45:27;3.60;99.90
58513;DHT22;44302;47.914;10.642;2023-02-01T10:47:55;3.50;99.90
58513;DHT22;44302;47.914;10.642;2023-02-01T10:50:44;3.40;99.90
58513;DHT22;44302;47.914;10.642;2023-02-01T10:55:53;3.60;99.90
58513;DHT22;44302;47.914;10.642;2023-02-01T10:58:20;3.70;99.90
58513;DHT22;44302;47.914;10.642;2023-02-01T11:01:08;3.90;99.90
58513;DHT22;44302;47.914;10.642;2023-02-01T11:04:19;4.10;99.90
58513;DHT22;44302;47.914;10.642;2023-02-01T11:06:32;3.90;99.90
58513;DHT22;44302;47.914;10.642;2023-02-01T11:11:53;3.90;99.90
58513;DHT22;44302;47.914;10.642;2023-02-01T11:14:37;3.90;99.90
58513;DHT22;44302;47.914;10.642;2023-02-01T11:17:20;3.80;99.90
58513;DHT22;44302;47.914;10.642;2023-02-01T11:20:04;3.80;99.90
58513;DHT22;44302;47.914;10.642;2023-02-01T11:22:31;3.80;99.90
58513;DHT22;44302;47.914;10.642;2023-02-01T11:24:57;3.90;99.90
58513;DHT22;44302;47.914;10.642;2023-02-01T11:27:24;3.80;99.90
58513;DHT22;44302;47.914;10.642;2023-02-01T11:29:53;3.80;99.90
58513;DHT22;44302;47.914;10.642;2023-02-01T11:32:21;3.90;99.90
58513;DHT22;44302;47.914;10.642;2023-02-01T11:34:51;4.00;99.90
58513;DHT22;44302;47.914;10.642;2023-02-01T11:37:21;4.10;99.90
58513;DHT22;44302;47.914;10.642;2023-02-01T11:40:00;4.20;99.90
58513;DHT22;44302;47.914;10.642;2023-02-01T11:42:27;4.10;99.90
58513;DHT22;44302;47.914;10.642;2023-02-01T11:45:20;4.00;99.90
58513;DHT22;44302;47.914;10.642;2023-02-01T11:47:52;4.20;99.90
58513;DHT22;44302;47.914;10.642;2023-02-01T11:50:27;4.30;99.90
58513;DHT22;44302;47.914;10.642;2023-02-01T11:56:05;4.60;99.90
58513;DHT22;44302;47.914;10.642;2023-02-01T12:18:42;4.10;99.90
58513;DHT22;44302;47.914;10.642;2023-02-01T12:26:51;3.90;99.90
58513;DHT22;44302;47.914;10.642;2023-02-01T12:29:29;4.00;99.90
58513;DHT22;44302;47.914;10.642;2023-02-01T12:43:19;4.30;99.90
58513;DHT22;44302;47.914;10.642;2023-02-01T12:45:53;4.40;99.90
58513;DHT22;44302;47.914;10.642;2023-02-01T12:48:34;4.30;99.90
58513;DHT22;44302;47.914;10.642;2023-02-01T12:51:13;4.20;99.90
58513;DHT22;44302;47.914;10.642;2023-02-01T12:53:46;4.10;99.90
58513;DHT22;44302;47.914;10.642;2023-02-01T12:57:02;3.90;99.90
58513;DHT22;44302;47.914;10.642;2023-02-01T13:01:48;3.80;99.90
58513;DHT22;44302;47.914;10.642;2023-02-01T13:04:23;3.80;99.90
58513;DHT22;44302;47.914;10.642;2023-02-01T13:07:14;3.70;99.90
58513;DHT22;44302;47.914;10.642;2023-02-01T13:09:57;3.80;99.90
58513;DHT22;44302;47.914;10.642;2023-02-01T13:12:36;3.80;99.90
58513;DHT22;44302;47.914;10.642;2023-02-01T13:15:39;3.70;99.90
58513;DHT22;44302;47.914;10.642;2023-02-01T13:18:01;3.70;99.90
58513;DHT22;44302;47.914;10.642;2023-02-01T13:26:03;3.60;99.90
58513;DHT22;44302;47.914;10.642;2023-02-01T13:28:47;3.50;99.90
58513;DHT22;44302;47.914;10.642;2023-02-01T13:36:48;3.60;99.90
58513;DHT22;44302;47.914;10.642;2023-02-01T13:39:30;3.60;99.90
58513;DHT22;44302;47.914;10.642;2023-02-01T13:42:05;3.60;99.90
58513;DHT22;44302;47.914;10.642;2023-02-01T13:44:45;3.50;99.90
58513;DHT22;44302;47.914;10.642;2023-02-01T13:47:25;3.50;99.90
58513;DHT22;44302;47.914;10.642;2023-02-01T13:49:54;3.50;99.90
58513;DHT22;44302;47.914;10.642;2023-02-01T13:52:44;3.50;99.90
58513;DHT22;44302;47.914;10.642;2023-02-01T13:55:23;3.60;99.90
58513;DHT22;44302;47.914;10.642;2023-02-01T14:00:37;3.50;99.90
58513;DHT22;44302;47.914;10.642;2023-02-01T14:13:24;3.30;99.90
